Terminal Aerodrome Forecast
Issued by NWS

Home | Current Version | Previous Version | Text Only | Print | Product List | Glossary On
Versions: 1 2 3 4 5 6 7 8 9 10 11 12 13 14 15 16 17 18 19 20 21 22 23 24 25 26 27 28
313
FTUS46 KLOX 161741
TAFLGB
TAF
KLGB 161741Z 1618/1718 18006KT P6SM BKN035
     FM161900 18006KT P6SM SCT040
     FM162100 19008KT P6SM SKC
     FM170200 29008KT P6SM SKC
     FM170600 VRB03KT P6SM BKN015
     FM171100 12005KT P6SM OVC021
     FM171700 VRB03KT P6SM SKC=

USA.gov is the U.S. government's official web portal to all federal, state and local government web resources and services.